Fédération internationale de Ski
Member Section
Print

OFFICIAL RESULTS

Almaty (KAZ) 30.01.2017

Universiade - Men's Super G

Race codex : 1180
Valid for FIS Points : YES
Jury
TD FIS GOURIEV IOURI RUS
Referee Matjaz Kranjc FIS
Assistant Referee Alexey Orlov RUS
Chief of Race Andre Obyskalov KAZ
Technical Data
Start Altitude 2840 m.
Finish Altitude 2370 m.
Vertical Drop 470 m.
Course Length 1580 m.
Homologation Number 11695/04/15
Run 1
Course Setter Gennadi BUDORATSKI RUS
Number of Gates 36
Start Time 13:00
 
Show more info»

Competitors

Display filter form
Rank Bib FIS Code Name Year Nation Total Time Diff. FIS Points
 1  3  690616 TENTORI Michelangelo  1991  ITA   1:03.03     22.31
 2  1  481463 PYASIK Evgenij  1993  RUS   1:03.06  +0.03  22.82
 3  11  481785 EFIMOV Simon  1996  RUS   1:03.77  +0.74  34.99
 4  4  310426 VUKICEVIC Marko  1992  SRB   1:03.88  +0.85  36.87
 5  10  54383 KOGLER Tobias  1996  AUT   1:03.96  +0.93  38.25
 6  9  430640 BABICKI Pawel  1994  POL   1:04.10  +1.07  40.64
 7  2  310421 STEVOVIC Marko  1996  SRB   1:04.22  +1.19  42.70
 8  13  481875 RIABITCA Konstantin  1997  RUS   1:04.35  +1.32  44.93
 9  43  561360 KRALJ Zan  1997  SLO   1:04.45  +1.42  46.64
 10  7  151060 PAULUS Daniel  1994  CZE   1:04.78  +1.75  52.30
 11  15  481845 SVITKOV Gennadiy  1997  RUS   1:04.93  +1.90  54.87
 12  6  670052 KHUBER Martin  1992  KAZ   1:05.17  +2.14  58.98
 13  50  511817 STRICKER Martin  1991  SUI   1:05.18  +2.15  59.15
 14  24  550054 ZVEJNIEKS Kristaps  1992  LAT   1:05.23  +2.20  60.01
 15  8  6292563 CASARTELLI Athos  1997  ITA   1:05.47  +2.44  64.12
 16  31  700941 KATRENIC Henrich  1998  SVK   1:05.67  +2.64  67.55
 17  14  104015 SCHUESSLER BEDARD William  1993  CAN   1:05.68  +2.65  67.72
 18  39  512239 DOBLER Yannik  1997  SUI   1:05.72  +2.69  68.40
 19  18  512242 HEHLI Gian-Andrea  1997  SUI   1:05.79  +2.76  69.60
 20  29  151024 KOTZMANN Adam  1993  CZE   1:05.80  +2.77  69.77
 21  45  304535 NAKAMURA Shun  1995  JPN   1:05.84  +2.81  70.46
 22  19  481549 STUKOV Maksim  1994  RUS   1:05.97  +2.94  72.69
 23  33  304242 NARITA Hideyuki  1993  JPN   1:05.98  +2.95  72.86
 24  38  430550 KLUSAK Jakub  1992  POL   1:05.99  +2.96  73.03
 25  35  6292052 RIGAMONTI Giacomo  1996  ITA   1:06.22  +3.19  76.97
 26  5  6290151 BERETTA Carlo  1992  ITA   1:06.31  +3.28  78.51
 27  36  54307 GRUBER Christof  1995  AUT   1:06.39  +3.36  79.88
 28  22  512264 BEGUELIN Axel  1997  SUI   1:06.50  +3.47  81.77
 29  46  150834 ZIKA Adam  1989  CZE   1:06.66  +3.63  84.51
 30  28  320391 KIM Dong-woo  1995  KOR   1:06.68  +3.65  84.85
 31  23  561371 NAPOTNIK Jan  1997  SLO   1:06.85  +3.82  87.76
 32  26  110350 FIGUEROA Andres  1996  CHI   1:06.92  +3.89  88.96
 33  21  481617 USHAKOV Andrey  1995  RUS   1:06.98  +3.95  89.99
 34  27  104516 BEAURIVAGE Justin  1997  CAN   1:07.05  +4.02  91.19
 35  25  6292457 VITTORI Antonio  1997  ITA   1:07.06  +4.03  91.36
 36  34  6292065 BERETTA Filippo  1996  ITA   1:07.34  +4.31  96.16
 37  55  670080 KUCHIN Zakhar  1997  KAZ   1:07.40  +4.37  97.19
 38  44  320386 JO Kwang-ho  1995  KOR   1:07.61  +4.58  100.79
 39  51  670082 DANOV Sergey  1997  KAZ   1:08.20  +5.17  110.90
 40  69  310410 VUKOVIC Andrija  1994  SRB   1:08.60  +5.57  117.75
 41  42  770015 TIMOFEEV Evgeniy  1994  KGZ   1:08.64  +5.61  118.44
 42  52  512173 ZELGER Gian  1996  SUI   1:08.77  +5.74  120.66
 43  72  400268 BORSBOOM Olaf  1995  NED   1:08.92  +5.89  123.23
 43  47  320390 LEE Jang-woo  1995  KOR   1:08.92  +5.89  123.23
 45  37  670068 KOSTROV Alexandr  1994  KAZ   1:09.08  +6.05  125.97
 46  61  430667 BIALOBRZYCKI Dominik  1995  POL   1:09.35  +6.32  130.60
 47  49  320379 CHOI Chang-hyun  1994  KOR   1:09.36  +6.33  130.77
 48  63  780013 ZAVECKAS Rokas  1996  LTU   1:09.39  +6.36  131.29
 49  41  670079 SYSSOYEV Alexey  1996  KAZ   1:09.50  +6.47  133.17
 50  54  110356 OPPLIGER Lucas  1996  CHI   1:09.99  +6.96  141.57
 51  56  502065 OHLSSON Erik  1995  SWE   1:10.21  +7.18  145.34
 52  68  320417 KIM Dong-Cheul  1997  KOR   1:10.87  +7.84  156.65
 53  64  340447 ZINA Jeffrey  1998  LBN   1:11.43  +8.40  166.24
 54  53  210040 TUKHTAEV Kamiljon  1997  UZB   1:11.87  +8.84  173.78
 55  75  690732 MARIICHYN Andriy  1995  UKR   1:13.10  +10.07  194.86
 56  74  390039 VIRRO Sten-Mark  1997  EST   1:14.06  +11.03  211.31
 57  66  240122 SZEPESI Bertold  1990  HUN   1:14.62  +11.59  220.90
 58  70  690752 KOVBASNYUK Taras  1997  UKR   1:20.62  +17.59  323.71
 59  73  210041 BUKHARBAEV Damir  1996  UZB   1:24.39  +21.36  388.31
 60  71  690721 HAM Ihor  1995  UKR   1:26.04  +23.01  416.58
Did not finish
   67  104191 MAINS Gabriel  1994  CAN       
   62  690737 TSIBELENKO Levko  1996  UKR       
   59  30405 BACIGALUPO Tomas  1998  ARG       
   58  151173 KRAL Petr  1996  CZE       
   57  151110 STEPAN Martin  1995  CZE       
   48  512029 NIEMEYER Nicola  1994  SUI       
   40  320370 LEE Dong-geun  1994  KOR       
   32  700868 FALAT Matej  1993  SVK       
   20  700901 HYSKA Martin  1994  SVK       
   17  430668 DZIEDZIC Andrzej  1995  POL       
   16  103984 LAJOIE Vincent  1993  CAN       
   12  430472 KLUSAK Michal  1990  POL       
Did not start
   65  92673 NUSHEV Georgi  1995  BUL       
   60  92562 PRISADOV Stefan  1990  BUL       
   30  690694 KOVBASNYUK Ivan  1993  UKR